createdAt,value
2022-12-19T00:01:58.315Z,76.59
2022-12-19T00:04:25.961Z,77.12
2022-12-19T00:06:54.070Z,76.67
2022-12-19T00:09:21.567Z,77.04
2022-12-19T00:11:49.390Z,77.18
2022-12-19T00:14:18.301Z,77.48
2022-12-19T00:16:45.929Z,77.56
2022-12-19T00:19:14.009Z,77.19
2022-12-19T00:21:41.532Z,77.26
2022-12-19T00:24:18.081Z,77.51
2022-12-19T00:26:49.529Z,76.85
2022-12-19T00:29:18.796Z,76.87
2022-12-19T00:31:46.703Z,76.91
2022-12-19T00:34:15.631Z,77.16
2022-12-19T00:36:43.210Z,77.18
2022-12-19T00:39:11.590Z,77.41
2022-12-19T00:41:41.881Z,77.92
2022-12-19T00:44:12.191Z,77.31
2022-12-19T00:46:44.474Z,77.44
2022-12-19T00:49:19.413Z,77.89
2022-12-19T00:51:47.631Z,77.40
2022-12-19T00:54:15.556Z,77.63
2022-12-19T00:56:43.309Z,77.34
2022-12-19T00:59:11.015Z,76.99
2022-12-19T01:01:42.194Z,76.75
2022-12-19T01:04:32.455Z,76.97
2022-12-19T01:07:03.293Z,76.95
2022-12-19T01:09:34.843Z,77.17
2022-12-19T01:12:24.178Z,76.92
2022-12-19T01:14:54.566Z,76.44
2022-12-19T01:17:25.330Z,76.84
2022-12-19T01:19:55.367Z,77.17
2022-12-19T01:22:22.946Z,77.24
2022-12-19T01:24:50.496Z,76.57
2022-12-19T01:27:18.015Z,77.03
2022-12-19T01:29:52.136Z,76.72
2022-12-19T01:32:21.050Z,77.47
2022-12-19T01:34:48.591Z,77.12
2022-12-19T01:37:17.480Z,77.18
2022-12-19T01:39:46.225Z,77.10
2022-12-19T01:42:16.277Z,77.22
2022-12-19T01:45:27.662Z,76.92
2022-12-19T01:48:06.155Z,76.89
2022-12-19T01:50:38.976Z,76.65
2022-12-19T01:53:12.556Z,76.68
2022-12-19T01:55:42.426Z,76.98
2022-12-19T01:58:12.368Z,76.91
2022-12-19T02:00:42.268Z,76.67
2022-12-19T02:03:16.553Z,76.60
2022-12-19T02:05:45.581Z,76.94
2022-12-19T02:08:15.630Z,77.07
2022-12-19T02:10:43.205Z,77.07
2022-12-19T02:13:11.395Z,76.92
2022-12-19T02:15:48.653Z,77.00
2022-12-19T02:18:27.429Z,76.78
2022-12-19T02:21:30.777Z,76.38
2022-12-19T02:24:42.381Z,76.38
2022-12-19T02:27:40.316Z,76.69
2022-12-19T02:30:11.687Z,76.90
2022-12-19T02:32:50.002Z,76.70
2022-12-19T02:35:28.628Z,77.30
2022-12-19T02:38:06.766Z,77.11
2022-12-19T02:40:43.270Z,76.77
2022-12-19T02:43:16.733Z,77.13
2022-12-19T02:45:46.225Z,76.95
2022-12-19T02:48:19.434Z,77.61
2022-12-19T02:50:50.145Z,77.37
2022-12-19T02:53:23.540Z,77.77
2022-12-19T02:56:12.226Z,77.63
2022-12-19T02:58:52.513Z,77.60
2022-12-19T03:01:31.834Z,77.61
2022-12-19T03:04:11.287Z,77.81
2022-12-19T03:06:49.066Z,77.97
2022-12-19T03:09:25.651Z,78.61
2022-12-19T03:12:02.554Z,79.39
2022-12-19T03:14:32.348Z,79.79
2022-12-19T03:17:05.681Z,81.15
2022-12-19T03:19:35.675Z,81.80
2022-12-19T03:22:03.201Z,82.40
2022-12-19T03:24:31.078Z,82.18
2022-12-19T03:27:06.438Z,82.66
2022-12-19T03:29:39.144Z,83.54
2022-12-19T03:32:11.446Z,83.62
2022-12-19T03:34:45.232Z,83.40
2022-12-19T03:37:16.679Z,83.70
2022-12-19T03:39:47.541Z,84.24
2022-12-19T03:42:35.377Z,84.22
2022-12-19T03:45:05.662Z,84.71
2022-12-19T03:47:38.835Z,84.70
2022-12-19T03:50:09.419Z,84.93
2022-12-19T03:52:46.120Z,84.83
2022-12-19T03:55:17.545Z,85.38
2022-12-19T03:57:51.408Z,85.19
2022-12-19T04:00:19.667Z,85.45
2022-12-19T04:02:52.265Z,85.70
2022-12-19T04:05:24.080Z,84.98
2022-12-19T04:07:55.204Z,85.64
2022-12-19T04:10:27.171Z,85.93
2022-12-19T04:13:00.053Z,85.73
2022-12-19T04:15:36.771Z,85.35
2022-12-19T04:18:07.871Z,86.25
2022-12-19T04:20:41.101Z,86.21
2022-12-19T04:23:15.912Z,86.15
2022-12-19T04:25:48.661Z,86.23
2022-12-19T04:28:21.030Z,86.10
2022-12-19T04:30:49.955Z,86.54
2022-12-19T04:33:17.607Z,86.72
2022-12-19T04:35:46.564Z,86.80
2022-12-19T04:38:14.154Z,86.72
2022-12-19T04:40:41.912Z,86.63
2022-12-19T04:43:09.896Z,86.53
2022-12-19T04:45:37.735Z,86.65
2022-12-19T04:48:05.752Z,86.31
2022-12-19T04:50:35.974Z,86.69
2022-12-19T04:53:05.068Z,86.96
2022-12-19T04:55:32.772Z,87.27
2022-12-19T04:58:06.137Z,87.23
2022-12-19T05:00:34.107Z,86.68
2022-12-19T05:03:01.931Z,86.74
2022-12-19T05:05:29.722Z,87.12
2022-12-19T05:08:00.353Z,87.41
2022-12-19T05:10:29.251Z,87.64
2022-12-19T05:12:56.734Z,87.82
2022-12-19T05:15:24.467Z,87.58
2022-12-19T05:17:52.121Z,87.63
2022-12-19T05:20:19.641Z,87.83
2022-12-19T05:22:47.210Z,87.88
2022-12-19T05:25:14.954Z,87.85
2022-12-19T05:27:43.860Z,88.47
2022-12-19T05:30:12.418Z,88.40
2022-12-19T05:32:39.960Z,88.65
2022-12-19T05:35:08.353Z,88.83
2022-12-19T05:37:35.977Z,88.44
2022-12-19T05:40:03.498Z,88.42
2022-12-19T05:42:31.000Z,88.90
2022-12-19T05:44:59.892Z,88.77
2022-12-19T05:47:27.438Z,89.33
2022-12-19T05:49:54.958Z,89.40
2022-12-19T05:52:23.011Z,89.52
2022-12-19T05:54:50.660Z,89.41
2022-12-19T05:57:18.196Z,89.70
2022-12-19T05:59:45.720Z,89.44
2022-12-19T06:02:14.658Z,89.72
2022-12-19T06:04:42.353Z,90.00
2022-12-19T06:07:10.116Z,89.50
2022-12-19T06:09:38.151Z,89.93
2022-12-19T06:12:06.133Z,89.51
2022-12-19T06:14:34.130Z,89.75
2022-12-19T06:17:01.755Z,89.71
2022-12-19T06:19:31.306Z,89.82
2022-12-19T06:21:58.889Z,90.26
2022-12-19T06:24:26.770Z,90.50
2022-12-19T06:26:54.334Z,90.71
2022-12-19T06:29:21.863Z,91.08
2022-12-19T06:31:49.864Z,90.90
2022-12-19T06:34:39.454Z,90.70
2022-12-19T06:37:08.380Z,91.84
2022-12-19T06:39:36.355Z,90.70
2022-12-19T06:42:21.820Z,90.51
2022-12-19T06:44:49.459Z,91.01
2022-12-19T06:47:17.127Z,91.09
2022-12-19T06:49:44.653Z,91.22
2022-12-19T06:52:13.512Z,91.07
2022-12-19T06:54:41.261Z,91.29
2022-12-19T06:57:08.968Z,91.18
2022-12-19T06:59:36.465Z,91.39
2022-12-19T07:02:13.239Z,91.34
2022-12-19T07:04:44.675Z,91.94
2022-12-19T07:07:13.818Z,92.04
2022-12-19T07:09:41.965Z,92.20
2022-12-19T07:12:09.541Z,92.46
2022-12-19T07:14:37.093Z,92.70
2022-12-19T07:17:06.217Z,92.90
2022-12-19T07:19:34.828Z,92.73
2022-12-19T07:22:04.802Z,92.68
2022-12-19T07:24:35.657Z,93.03
2022-12-19T07:27:03.502Z,92.90
2022-12-19T07:29:30.993Z,92.99
2022-12-19T07:31:58.934Z,93.16
2022-12-19T07:34:26.544Z,92.34
2022-12-19T07:36:54.072Z,92.43
2022-12-19T07:39:22.735Z,92.85
2022-12-19T07:41:51.578Z,93.34
2022-12-19T07:44:30.331Z,94.19
2022-12-19T07:46:58.340Z,95.10
2022-12-19T07:49:25.852Z,96.07
2022-12-19T07:51:53.391Z,96.45
2022-12-19T07:54:20.983Z,95.85
2022-12-19T07:56:48.517Z,96.29
2022-12-19T07:59:17.680Z,96.33
2022-12-19T08:01:45.315Z,96.89
2022-12-19T08:04:13.150Z,97.15
2022-12-19T08:06:41.519Z,97.74
2022-12-19T08:09:09.348Z,97.79
2022-12-19T08:11:36.863Z,98.49
2022-12-19T08:14:04.739Z,98.86
2022-12-19T08:16:49.266Z,98.81
2022-12-19T08:19:24.700Z,99.44
2022-12-19T08:21:54.917Z,99.64
2022-12-19T08:24:22.488Z,100.00
2022-12-19T08:26:50.099Z,100.00
2022-12-19T08:29:17.667Z,100.00
2022-12-19T08:31:46.685Z,100.00
2022-12-19T08:34:14.208Z,100.00
2022-12-19T08:36:41.815Z,100.00
2022-12-19T08:39:09.569Z,100.00
2022-12-19T08:41:37.249Z,100.00
2022-12-19T08:44:04.961Z,100.00
2022-12-19T08:46:32.553Z,100.00
2022-12-19T08:49:01.632Z,100.00
2022-12-19T08:51:29.204Z,100.00
2022-12-19T08:53:56.768Z,100.00
2022-12-19T08:56:24.469Z,100.00
2022-12-19T08:58:52.769Z,100.00
2022-12-19T09:01:23.809Z,100.00
2022-12-19T09:05:28.861Z,100.00
2022-12-19T09:06:40.715Z,100.00
2022-12-19T09:09:08.478Z,100.00
2022-12-19T09:11:45.357Z,100.00
2022-12-19T09:14:21.202Z,100.00
2022-12-19T09:16:49.397Z,100.00
2022-12-19T09:19:16.994Z,100.00
2022-12-19T09:21:45.934Z,100.00
2022-12-19T09:24:13.482Z,100.00
2022-12-19T09:26:42.072Z,100.00
2022-12-19T09:29:20.083Z,100.00
2022-12-19T09:31:53.836Z,100.00
2022-12-19T09:34:24.911Z,100.00
2022-12-19T09:37:06.413Z,100.00
2022-12-19T09:39:34.868Z,100.00
2022-12-19T09:42:34.203Z,100.00
2022-12-19T09:45:31.585Z,100.00
2022-12-19T09:48:01.606Z,100.00
2022-12-19T09:50:45.910Z,100.00
2022-12-19T09:53:23.687Z,100.00
2022-12-19T09:55:53.836Z,100.00
2022-12-19T09:58:32.399Z,100.00
2022-12-19T10:01:03.366Z,100.00
2022-12-19T10:03:40.346Z,100.00
2022-12-19T10:07:11.128Z,100.00
2022-12-19T10:10:01.432Z,100.00
2022-12-19T10:12:45.273Z,100.00
2022-12-19T10:15:20.564Z,100.00
2022-12-19T10:18:05.382Z,100.00
2022-12-19T10:20:36.489Z,100.00
2022-12-19T10:23:18.714Z,100.00
2022-12-19T10:26:00.181Z,100.00
2022-12-19T10:28:44.020Z,100.00
2022-12-19T10:31:21.827Z,100.00
2022-12-19T10:33:58.182Z,100.00
2022-12-19T10:36:48.767Z,100.00
2022-12-19T10:39:22.214Z,100.00
2022-12-19T10:41:55.680Z,100.00
2022-12-19T10:44:26.689Z,100.00
2022-12-19T10:46:54.251Z,100.00
2022-12-19T10:49:23.564Z,100.00
2022-12-19T10:51:58.991Z,100.00
2022-12-19T10:54:37.941Z,100.00
2022-12-19T10:57:21.164Z,100.00
2022-12-19T10:59:56.618Z,100.00
2022-12-19T11:02:35.225Z,100.00
2022-12-19T11:05:04.534Z,100.00
2022-12-19T11:07:32.418Z,100.00
2022-12-19T11:10:32.951Z,100.00
2022-12-19T11:18:05.748Z,100.00
2022-12-19T11:22:17.331Z,100.00
2022-12-19T11:29:15.411Z,100.00
2022-12-19T11:29:45.797Z,100.00
2022-12-19T11:29:47.126Z,100.00
2022-12-19T11:30:34.364Z,100.00
2022-12-19T11:33:15.591Z,100.00
2022-12-19T11:35:49.254Z,100.00
2022-12-19T11:38:22.116Z,100.00
2022-12-19T11:40:53.968Z,100.00
2022-12-19T11:43:45.299Z,100.00
2022-12-19T11:46:25.843Z,100.00
2022-12-19T11:48:56.504Z,100.00
2022-12-19T11:51:31.234Z,100.00
2022-12-19T11:54:09.206Z,100.00
2022-12-19T11:56:36.781Z,100.00
2022-12-19T11:59:16.016Z,100.00
2022-12-19T12:01:59.212Z,100.00
2022-12-19T12:04:44.443Z,100.00
2022-12-19T12:07:34.211Z,100.00
2022-12-19T12:15:24.390Z,100.00
2022-12-19T12:24:58.624Z,100.00
2022-12-19T12:28:31.106Z,100.00
2022-12-19T12:31:16.421Z,100.00
2022-12-19T12:31:20.597Z,100.00
2022-12-19T12:31:42.239Z,100.00
2022-12-19T12:32:06.513Z,100.00
2022-12-19T12:35:13.513Z,100.00
2022-12-19T12:35:30.230Z,100.00
2022-12-19T12:39:48.605Z,100.00
2022-12-19T12:42:32.843Z,100.00
2022-12-19T12:45:02.428Z,100.00
2022-12-19T12:47:30.202Z,100.00
2022-12-19T12:50:01.720Z,100.00
2022-12-19T12:52:35.864Z,100.00
2022-12-19T12:55:05.482Z,100.00
2022-12-19T12:57:38.813Z,100.00
2022-12-19T13:00:20.693Z,100.00
2022-12-19T13:02:53.250Z,100.00
2022-12-19T13:05:33.429Z,100.00
2022-12-19T13:08:02.556Z,100.00
2022-12-19T13:10:32.564Z,100.00
2022-12-19T13:13:01.433Z,100.00
2022-12-19T13:15:38.456Z,100.00
2022-12-19T13:18:34.038Z,100.00
2022-12-19T13:21:04.365Z,100.00
2022-12-19T13:23:47.018Z,100.00
2022-12-19T13:26:36.821Z,100.00
2022-12-19T13:29:26.929Z,100.00
2022-12-19T13:32:09.056Z,100.00
2022-12-19T13:34:37.629Z,100.00
2022-12-19T13:39:49.333Z,100.00
2022-12-19T13:40:33.211Z,100.00
2022-12-19T13:43:27.475Z,100.00
2022-12-19T13:45:58.009Z,100.00
2022-12-19T13:48:31.322Z,100.00
2022-12-19T13:51:01.746Z,100.00
2022-12-19T13:53:30.481Z,100.00
2022-12-19T13:56:03.244Z,100.00
2022-12-19T13:58:33.069Z,100.00
2022-12-19T14:01:04.413Z,100.00
2022-12-19T14:03:37.547Z,100.00
2022-12-19T14:06:17.658Z,100.00
2022-12-19T14:09:41.548Z,100.00
2022-12-19T14:12:22.736Z,100.00
2022-12-19T14:14:48.675Z,100.00
2022-12-19T14:17:30.394Z,100.00
2022-12-19T14:20:15.489Z,100.00
2022-12-19T14:22:45.602Z,100.00
2022-12-19T14:27:51.729Z,100.00
2022-12-19T14:28:24.405Z,100.00
2022-12-19T14:30:58.968Z,100.00
2022-12-19T14:33:43.684Z,100.00
2022-12-19T14:36:26.207Z,100.00
2022-12-19T14:39:23.899Z,100.00
2022-12-19T14:42:04.101Z,100.00
2022-12-19T14:52:11.609Z,100.00
2022-12-19T14:52:34.686Z,100.00
2022-12-19T14:54:10.264Z,100.00
2022-12-19T14:54:50.653Z,100.00
2022-12-19T14:58:58.609Z,100.00
2022-12-19T15:01:29.575Z,100.00
2022-12-19T15:04:48.887Z,100.00
2022-12-19T15:07:09.248Z,100.00
2022-12-19T15:11:05.452Z,100.00
2022-12-19T15:14:04.045Z,100.00
2022-12-19T15:15:46.095Z,100.00
2022-12-19T15:18:22.023Z,100.00
2022-12-19T15:20:49.996Z,100.00
2022-12-19T15:23:22.061Z,100.00
2022-12-19T15:26:07.697Z,100.00
2022-12-19T15:28:39.425Z,100.00
2022-12-19T15:31:18.117Z,100.00
2022-12-19T15:34:32.176Z,100.00
2022-12-19T15:36:34.644Z,100.00
2022-12-19T15:39:03.559Z,100.00
2022-12-19T15:41:31.481Z,100.00
2022-12-19T15:44:04.223Z,100.00
2022-12-19T15:46:33.309Z,100.00
2022-12-19T15:49:02.419Z,100.00
2022-12-19T15:51:30.125Z,100.00
2022-12-19T15:54:22.188Z,100.00
2022-12-19T15:56:47.853Z,100.00
2022-12-19T15:59:24.383Z,100.00
2022-12-19T16:01:52.894Z,100.00
2022-12-19T16:04:23.153Z,100.00
2022-12-19T16:06:50.811Z,100.00
2022-12-19T16:09:21.048Z,100.00
2022-12-19T16:11:48.843Z,100.00
2022-12-19T16:14:17.078Z,100.00
2022-12-19T16:16:50.077Z,100.00
2022-12-19T16:19:26.518Z,100.00
2022-12-19T16:21:54.878Z,100.00
2022-12-19T16:24:23.060Z,100.00
2022-12-19T16:26:54.321Z,100.00
2022-12-19T16:29:24.972Z,100.00
2022-12-19T16:31:52.583Z,100.00
2022-12-19T16:34:22.508Z,100.00
2022-12-19T16:36:52.007Z,100.00
2022-12-19T16:39:19.597Z,100.00
2022-12-19T16:41:47.809Z,100.00
2022-12-19T16:44:20.213Z,100.00
2022-12-19T16:46:51.057Z,100.00
2022-12-19T16:49:22.708Z,100.00
2022-12-19T16:51:52.327Z,100.00
2022-12-19T16:54:21.639Z,100.00
2022-12-19T16:56:50.735Z,100.00
2022-12-19T16:59:21.367Z,100.00
2022-12-19T17:01:50.894Z,100.00
2022-12-19T17:04:21.447Z,100.00
2022-12-19T17:06:51.725Z,100.00
2022-12-19T17:09:23.125Z,100.00
2022-12-19T17:11:53.939Z,100.00
2022-12-19T17:14:23.538Z,100.00
2022-12-19T17:16:54.999Z,100.00
2022-12-19T17:19:24.663Z,100.00
2022-12-19T17:21:53.791Z,100.00
2022-12-19T17:24:21.359Z,100.00
2022-12-19T17:26:48.897Z,100.00
2022-12-19T17:29:16.508Z,100.00
2022-12-19T17:31:44.273Z,100.00
2022-12-19T17:34:18.731Z,100.00
2022-12-19T17:36:46.499Z,100.00
2022-12-19T17:39:23.879Z,100.00
2022-12-19T17:41:52.078Z,100.00
2022-12-19T17:44:19.944Z,100.00
2022-12-19T17:46:48.490Z,100.00
2022-12-19T17:49:18.218Z,100.00
2022-12-19T17:51:52.183Z,100.00
2022-12-19T17:54:19.982Z,100.00
2022-12-19T17:56:48.971Z,100.00
2022-12-19T17:59:16.504Z,100.00
2022-12-19T18:01:46.854Z,100.00
2022-12-19T18:04:17.399Z,100.00
2022-12-19T18:06:45.519Z,100.00
2022-12-19T18:09:19.662Z,100.00
2022-12-19T18:11:49.374Z,100.00
2022-12-19T18:14:17.328Z,100.00
2022-12-19T18:16:45.867Z,100.00
2022-12-19T18:19:18.155Z,100.00
2022-12-19T18:21:46.000Z,100.00
2022-12-19T18:24:14.689Z,100.00
2022-12-19T18:26:42.227Z,100.00
2022-12-19T18:29:11.466Z,100.00
2022-12-19T18:31:43.468Z,100.00
2022-12-19T18:34:20.008Z,100.00
2022-12-19T18:36:47.589Z,100.00
2022-12-19T18:39:21.475Z,100.00
2022-12-19T18:41:49.955Z,100.00
2022-12-19T18:44:19.150Z,100.00
2022-12-19T18:46:49.576Z,100.00
2022-12-19T18:49:18.217Z,100.00
2022-12-19T18:51:46.182Z,100.00
2022-12-19T18:54:14.782Z,100.00
2022-12-19T18:56:42.412Z,100.00
2022-12-19T18:59:10.919Z,100.00
2022-12-19T19:01:42.863Z,100.00
2022-12-19T19:04:12.988Z,100.00
2022-12-19T19:06:46.742Z,100.00
2022-12-19T19:09:19.233Z,100.00
2022-12-19T19:11:49.477Z,100.00
2022-12-19T19:14:17.039Z,100.00
2022-12-19T19:16:46.065Z,100.00
2022-12-19T19:19:17.413Z,100.00
2022-12-19T19:21:45.232Z,100.00
2022-12-19T19:24:15.742Z,100.00
2022-12-19T19:26:43.396Z,100.00
2022-12-19T19:29:10.945Z,100.00
2022-12-19T19:31:44.487Z,100.00
2022-12-19T19:34:16.298Z,100.00
2022-12-19T19:36:49.311Z,100.00
2022-12-19T19:39:19.709Z,100.00
2022-12-19T19:41:47.235Z,100.00
2022-12-19T19:44:14.790Z,100.00
2022-12-19T19:46:42.604Z,100.00
2022-12-19T19:49:10.388Z,100.00
2022-12-19T19:51:39.458Z,100.00
2022-12-19T19:54:07.097Z,100.00
2022-12-19T19:56:34.931Z,100.00
2022-12-19T19:59:02.583Z,100.00
2022-12-19T20:01:30.174Z,100.00
2022-12-19T20:03:57.954Z,100.00
2022-12-19T20:06:25.949Z,100.00
2022-12-19T20:08:54.886Z,100.00
2022-12-19T20:11:22.475Z,100.00
2022-12-19T20:13:50.037Z,100.00
2022-12-19T20:16:19.607Z,100.00
2022-12-19T20:18:49.814Z,100.00
2022-12-19T20:21:19.650Z,100.00
2022-12-19T20:23:47.167Z,100.00
2022-12-19T20:26:17.558Z,100.00
2022-12-19T20:28:48.921Z,100.00
2022-12-19T20:31:18.226Z,100.00
2022-12-19T20:33:46.180Z,100.00
2022-12-19T20:36:14.164Z,100.00
2022-12-19T20:38:42.085Z,100.00
2022-12-19T20:41:09.688Z,99.93
2022-12-19T20:43:38.997Z,99.50
2022-12-19T20:46:08.002Z,99.61
2022-12-19T20:48:35.946Z,99.17
2022-12-19T20:51:05.117Z,99.46
2022-12-19T20:53:33.586Z,99.02
2022-12-19T20:56:02.454Z,97.87
2022-12-19T20:58:32.691Z,97.92
2022-12-19T21:01:07.182Z,96.76
2022-12-19T21:03:35.257Z,97.21
2022-12-19T21:06:03.372Z,96.48
2022-12-19T21:08:31.131Z,97.43
2022-12-19T21:11:00.333Z,96.98
2022-12-19T21:13:28.005Z,96.50
2022-12-19T21:15:56.923Z,95.97
2022-12-19T21:18:26.514Z,95.21
2022-12-19T21:20:54.231Z,95.14
2022-12-19T21:23:22.471Z,94.90
2022-12-19T21:25:50.244Z,94.73
2022-12-19T21:28:18.149Z,94.41
2022-12-19T21:30:45.839Z,93.95
2022-12-19T21:33:13.406Z,94.19
2022-12-19T21:35:42.307Z,94.27
2022-12-19T21:38:09.807Z,94.80
2022-12-19T21:40:37.352Z,94.93
2022-12-19T21:43:11.424Z,94.68
2022-12-19T21:45:39.979Z,94.68
2022-12-19T21:48:07.627Z,95.36
2022-12-19T21:50:35.310Z,95.71
2022-12-19T21:53:04.249Z,94.83
2022-12-19T21:55:31.768Z,94.44
2022-12-19T21:58:00.555Z,94.43
2022-12-19T22:00:28.213Z,95.35
2022-12-19T22:03:13.282Z,95.16
2022-12-19T22:05:42.268Z,95.35
2022-12-19T22:08:11.923Z,95.07
2022-12-19T22:10:39.887Z,94.60
2022-12-19T22:13:07.436Z,95.02
2022-12-19T22:15:36.653Z,94.32
2022-12-19T22:18:04.532Z,94.36
2022-12-19T22:20:32.037Z,94.31
2022-12-19T22:22:59.591Z,93.92
2022-12-19T22:25:28.433Z,93.95
2022-12-19T22:27:56.317Z,93.85
2022-12-19T22:30:23.831Z,93.81
2022-12-19T22:32:51.386Z,94.64
2022-12-19T22:35:19.610Z,93.91
2022-12-19T22:37:47.207Z,94.34
2022-12-19T22:40:14.956Z,93.80
2022-12-19T22:42:43.819Z,92.89
2022-12-19T22:45:12.005Z,93.18
2022-12-19T22:47:42.127Z,93.29
2022-12-19T22:50:11.262Z,93.33
2022-12-19T22:52:39.130Z,92.57
2022-12-19T22:55:07.674Z,93.09
2022-12-19T22:57:35.294Z,92.98
2022-12-19T23:00:05.621Z,93.41
2022-12-19T23:02:33.379Z,93.37
2022-12-19T23:05:00.983Z,92.41
2022-12-19T23:07:28.521Z,92.53
2022-12-19T23:09:56.024Z,92.42
2022-12-19T23:12:23.552Z,92.56
2022-12-19T23:14:51.108Z,92.64
2022-12-19T23:17:20.059Z,92.62
2022-12-19T23:19:47.563Z,92.21
2022-12-19T23:22:15.263Z,92.27
2022-12-19T23:24:44.601Z,92.51
2022-12-19T23:27:12.127Z,92.68
2022-12-19T23:29:39.627Z,92.87
2022-12-19T23:32:07.503Z,93.24
2022-12-19T23:34:37.098Z,93.20
2022-12-19T23:37:12.693Z,93.32
2022-12-19T23:39:40.526Z,93.32
2022-12-19T23:42:08.092Z,93.10
2022-12-19T23:44:35.786Z,92.87
2022-12-19T23:47:04.147Z,93.12
2022-12-19T23:49:32.520Z,92.74
2022-12-19T23:52:01.875Z,92.84
2022-12-19T23:54:29.467Z,93.02
2022-12-19T23:56:57.062Z,92.78
2022-12-19T23:59:24.594Z,92.26
